Time;durP1;ratioP1;P1;durP2;ratioP2;P2;SDS_P1;SDS_P2;PMS_P1;PMS_P2;Temp;Humidity;BMP_temperature;BMP_pressure;BME280_temperature;BME280_humidity;BME280_pressure;Samples;Min_cycle;Max_cycle;Signal;HPM_P1;HPM_P2
2023/05/20 00:01:14;;;;;;;9.45;4.78;;;;;;;;;;5139421;27;20107;-92
2023/05/20 00:03:59;;;;;;;13.00;5.20;;;;;;;;;;5138124;27;20073;-90
2023/05/20 00:06:44;;;;;;;13.63;5.93;;;;;;;;;;5153361;27;20118;-90
2023/05/20 00:09:28;;;;;;;11.68;5.13;;;;;;;;;;5137098;27;20118;-90
2023/05/20 00:12:13;;;;;;;13.13;4.80;;;;;;;;;;5137645;27;20114;-90
2023/05/20 00:14:58;;;;;;;15.98;6.07;;;;;;;;;;5124123;27;20088;-89
2023/05/20 00:17:42;;;;;;;13.70;5.10;;;;;;;;;;5137251;27;20044;-90
2023/05/20 00:20:27;;;;;;;14.93;5.78;;;;;;;;;;5152782;27;20577;-89
2023/05/20 00:23:11;;;;;;;14.15;5.10;;;;;;;;;;5137261;27;20080;-90
2023/05/20 00:25:56;;;;;;;17.50;5.47;;;;;;;;;;5123077;27;20074;-91
2023/05/20 00:28:41;;;;;;;14.65;5.55;;;;;;;;;;5152488;27;20114;-91
2023/05/20 00:31:25;;;;;;;15.43;6.05;;;;;;;;;;5137184;27;20083;-90
2023/05/20 00:34:10;;;;;;;13.93;5.03;;;;;;;;;;5137246;27;20103;-90
2023/05/20 00:36:58;;;;;;;12.68;5.38;;;;;;;;;;5137264;27;20110;-90
2023/05/20 00:39:43;;;;;;;11.93;5.43;;;;;;;;;;5152613;27;20049;-89
2023/05/20 00:42:28;;;;;;;17.23;5.75;;;;;;;;;;5154286;27;20054;-90
2023/05/20 00:45:13;;;;;;;17.23;5.53;;;;;;;;;;5156889;27;20091;-88
2023/05/20 00:48:00;;;;;;;10.52;4.65;;;;;;;;;;5156990;27;20113;-91
2023/05/20 00:50:45;;;;;;;11.55;5.28;;;;;;;;;;5156321;27;20110;-89
2023/05/20 00:53:30;;;;;;;16.95;5.72;;;;;;;;;;5140676;27;20099;-89
2023/05/20 00:56:15;;;;;;;15.73;5.63;;;;;;;;;;5141128;27;20502;-90
2023/05/20 00:59:00;;;;;;;11.80;5.30;;;;;;;;;;5140913;27;20390;-90
2023/05/20 01:01:44;;;;;;;12.18;5.40;;;;;;;;;;5156278;27;20030;-89
2023/05/20 01:04:29;;;;;;;14.70;5.65;;;;;;;;;;5156026;27;20087;-90
2023/05/20 01:07:17;;;;;;;13.45;6.70;;;;;;;;;;5156563;27;20050;-91
2023/05/20 01:10:02;;;;;;;13.32;6.95;;;;;;;;;;5114722;27;20052;-91
2023/05/20 01:12:52;;;;;;;17.30;6.95;;;;;;;;;;5140195;27;20154;-90
2023/05/20 01:15:39;;;;;;;10.93;5.20;;;;;;;;;;5156032;27;20090;-90
2023/05/20 01:18:25;;;;;;;12.60;5.32;;;;;;;;;;5127785;27;20390;-90
2023/05/20 01:21:11;;;;;;;13.43;4.97;;;;;;;;;;5126295;27;20169;-90
2023/05/20 01:23:56;;;;;;;13.75;5.75;;;;;;;;;;5156209;27;20077;-90
2023/05/20 01:26:40;;;;;;;11.30;5.40;;;;;;;;;;5139933;27;20058;-90
2023/05/20 01:29:25;;;;;;;12.73;5.43;;;;;;;;;;5126159;27;20083;-90
2023/05/20 01:32:16;;;;;;;11.70;5.40;;;10.00;99.90;;;;;;5125861;27;20034;-89
2023/05/20 01:35:01;;;;;;;10.02;4.93;;;;;;;;;;5155951;27;20047;-89
2023/05/20 01:37:47;;;;;;;14.23;5.70;;;9.90;99.90;;;;;;5155506;27;20045;-90
2023/05/20 01:40:32;;;;;;;12.98;5.32;;;;;;;;;;5125281;27;20079;-90
2023/05/20 01:43:17;;;;;;;9.18;5.93;;;;;;;;;;5140243;27;20079;-90
2023/05/20 01:46:04;;;;;;;13.98;5.68;;;;;;;;;;5156142;27;20046;-89
2023/05/20 01:48:49;;;;;;;14.75;6.03;;;;;;;;;;5139501;27;20841;-91
2023/05/20 01:51:34;;;;;;;13.02;6.22;;;;;;;;;;5139619;27;20164;-90
2023/05/20 01:54:18;;;;;;;10.85;5.57;;;;;;;;;;5154359;27;20069;-90
2023/05/20 01:57:03;;;;;;;13.65;5.68;;;;;;;;;;5140134;27;20056;-90
2023/05/20 01:59:48;;;;;;;9.25;5.55;;;;;;;;;;5139522;27;20086;-91
2023/05/20 02:02:32;;;;;;;11.30;5.43;;;;;;;;;;5139658;27;20047;-88
2023/05/20 02:05:17;;;;;;;12.00;6.53;;;;;;;;;;5139941;27;20141;-89
2023/05/20 02:08:01;;;;;;;12.23;5.53;;;;;;;;;;5155489;27;20041;-91
2023/05/20 02:10:48;;;;;;;13.27;5.93;;;;;;;;;;5154774;27;20042;-90
2023/05/20 02:13:33;;;;;;;10.65;5.25;;;;;;;;;;5139837;27;20045;-87
2023/05/20 02:16:18;;;;;;;10.55;5.30;;;;;;;;;;5139625;27;20046;-91
2023/05/20 02:19:02;;;;;;;10.43;5.38;;;;;;;;;;5140405;27;20042;-92
2023/05/20 02:21:47;;;;;;;9.15;4.72;;;;;;;;;;5139171;27;20114;-90
2023/05/20 02:24:32;;;;;;;9.45;5.22;;;;;;;;;;5127093;27;20037;-90
2023/05/20 02:27:17;;;;;;;13.02;5.22;;;;;;;;;;5118924;27;20084;-89
2023/05/20 02:30:01;;;;;;;9.52;4.68;;;;;;;;;;5149609;27;20042;-91
2023/05/20 02:32:46;;;;;;;14.55;5.57;;;;;;;;;;5129386;27;20124;-89
2023/05/20 02:35:30;;;;;;;14.77;5.55;;;;;;;;;;5137534;27;20542;-90
2023/05/20 02:38:15;;;;;;;11.82;5.30;;;;;;;;;;5125411;27;20079;-89
2023/05/20 02:40:59;;;;;;;10.13;5.38;;;;;;;;;;5116023;27;20083;-89
2023/05/20 02:43:44;;;;;;;9.95;5.30;;;;;;;;;;5121112;27;20062;-89
2023/05/20 02:46:29;;;;;;;11.63;5.57;;;;;;;;;;5130549;27;20409;-89
2023/05/20 02:49:13;;;;;;;12.27;5.13;;;;;;;;;;5139072;27;20111;-90
2023/05/20 02:51:58;;;;;;;11.30;5.25;;;;;;;;;;5138529;27;20042;-90
2023/05/20 02:54:43;;;;;;;10.82;5.00;;;;;;;;;;5131937;27;20070;-91
2023/05/20 02:57:27;;;;;;;10.65;4.47;;;;;;;;;;5132736;27;20038;-90
2023/05/20 03:00:13;;;;;;;11.18;4.95;;;;;;;;;;5104037;27;20034;-91
2023/05/20 03:02:57;;;;;;;8.63;5.00;;;;;;;;;;5133284;27;20038;-91
2023/05/20 03:05:44;;;;;;;8.93;5.15;;;;;;;;;;5109195;28;20527;-90
2023/05/20 03:08:29;;;;;;;10.05;4.65;;;;;;;;;;5129795;27;20037;-90
2023/05/20 03:11:14;;;;;;;12.52;4.93;;;;;;;;;;5132656;27;20100;-90
2023/05/20 03:13:59;;;;;;;10.65;4.88;;;;;;;;;;5117683;27;20152;-92
2023/05/20 03:16:44;;;;;;;11.15;5.45;;;;;;;;;;5131771;27;20038;-89
2023/05/20 03:19:29;;;;;;;9.63;4.35;;;;;;;;;;5133309;27;20066;-89
2023/05/20 03:22:16;;;;;;;9.98;5.20;;;;;;;;;;5132135;27;20038;-90
2023/05/20 03:25:01;;;;;;;8.48;4.47;;;;;;;;;;5104424;28;20402;-91
2023/05/20 03:27:46;;;;;;;9.38;4.80;;;;;;;;;;5111229;28;20049;-90
2023/05/20 03:30:30;;;;;;;9.88;5.03;;;;;;;;;;5127985;27;20043;-90
2023/05/20 03:33:15;;;;;;;11.18;4.88;;;;;;;;;;5133033;27;20087;-89
2023/05/20 03:36:00;;;;;;;14.40;4.90;;;;;;;;;;5132639;27;20447;-90
2023/05/20 03:38:44;;;;;;;11.02;5.15;;;;;;;;;;5133003;27;20493;-88
2023/05/20 03:41:29;;;;;;;14.23;5.07;;;;;;;;;;5133042;27;20030;-89
2023/05/20 03:44:13;;;;;;;9.52;4.80;;;;;;;;;;5131765;27;20414;-90
2023/05/20 03:46:58;;;;;;;11.30;4.88;;;;;;;;;;5132521;27;20083;-91
2023/05/20 03:49:42;;;;;;;8.65;4.13;;;;;;;;;;5131824;27;20509;-89
2023/05/20 03:52:27;;;;;;;8.43;4.07;;;;;;;;;;5117723;27;20092;-89
2023/05/20 03:55:12;;;;;;;9.30;4.47;;;;;;;;;;5125319;27;20616;-90
2023/05/20 03:57:56;;;;;;;7.82;4.22;;;;;;;;;;5134055;27;20087;-90
2023/05/20 04:00:41;;;;;;;6.80;4.25;;;;;;;;;;5153457;27;20129;-92
2023/05/20 04:03:27;;;;;;;6.35;4.00;;;;;;;;;;5153418;27;20037;-90
2023/05/20 04:06:13;;;;;;;9.32;3.55;;;;;;;;;;5108758;27;20041;-89
2023/05/20 04:08:58;;;;;;;6.32;4.03;;;;;;;;;;5152833;27;20126;-89
2023/05/20 04:11:42;;;;;;;7.40;3.53;;;;;;;;;;5153166;27;20091;-88
2023/05/20 04:14:26;;;;;;;7.65;4.20;;;;;;;;;;5153128;27;20086;-88
2023/05/20 04:17:11;;;;;;;9.70;4.03;;;;;;;;;;5152103;27;20401;-88
2023/05/20 04:19:59;;;;;;;7.00;3.22;;;;;;;;;;5136816;27;20041;-90
2023/05/20 04:22:47;;;;;;;8.50;3.42;;;;;;;;;;5137405;27;20517;-88
2023/05/20 04:25:32;;;;;;;7.70;3.63;;;;;;;;;;5137366;27;20095;-89
2023/05/20 04:28:16;;;;;;;6.32;2.88;;;;;;;;;;5108324;27;20039;-90
2023/05/20 04:31:04;;;;;;;7.68;3.25;;;;;;;;;;5152648;27;20038;-91
2023/05/20 04:33:49;;;;;;;5.43;3.10;;;;;;;;;;5152943;27;20137;-92
2023/05/20 04:36:37;;;;;;;6.35;3.28;;;;;;;;;;5153102;27;20046;-90
2023/05/20 04:39:21;;;;;;;6.72;3.58;;;;;;;;;;5137375;27;20076;-91
2023/05/20 04:42:06;;;;;;;6.70;2.72;;;;;;;;;;5136709;27;20041;-90
2023/05/20 04:44:51;;;;;;;5.90;3.17;;;;;;;;;;5152993;27;20068;-89
2023/05/20 04:47:37;;;;;;;5.65;2.50;;;;;;;;;;5152586;27;20546;-90
2023/05/20 04:50:22;;;;;;;5.10;2.70;;;;;;;;;;5134766;27;20160;-90
2023/05/20 04:53:07;;;;;;;7.50;2.75;;;;;;;;;;5121850;27;20083;-90
2023/05/20 04:55:55;;;;;;;5.43;2.70;;;;;;;;;;5143422;27;20058;-90
2023/05/20 04:58:40;;;;;;;3.95;2.22;;;;;;;;;;5143861;27;20074;-89
2023/05/20 05:01:25;;;;;;;6.57;2.03;;;;;;;;;;5134024;27;20477;-89
2023/05/20 05:04:09;;;;;;;6.82;2.42;;;;;;;;;;5136284;27;20042;-90
2023/05/20 05:06:54;;;;;;;5.07;2.25;;;;;;;;;;5132896;27;20029;-90
2023/05/20 05:09:38;;;;;;;3.92;2.00;;;;;;;;;;5142213;27;20111;-88
2023/05/20 05:12:23;;;;;;;3.90;2.08;;;;;;;;;;5141828;27;20198;-88
2023/05/20 05:15:08;;;;;;;5.55;1.92;;;;;;;;;;5130996;27;20046;-88
2023/05/20 05:17:52;;;;;;;8.55;2.20;;;;;;;;;;5129873;27;20543;-89
2023/05/20 05:20:37;;;;;;;5.75;2.40;;;;;;;;;;5147526;27;20541;-89
2023/05/20 05:23:25;;;;;;;4.75;2.38;;;;;;;;;;5128540;27;20041;-90
2023/05/20 05:26:09;;;;;;;3.75;1.95;;;;;;;;;;5128461;27;20504;-89
2023/05/20 05:28:54;;;;;;;6.10;2.28;;;;;;;;;;5138514;27;20046;-90
2023/05/20 05:31:39;;;;;;;4.38;1.95;;;;;;;;;;5134705;27;20041;-89
2023/05/20 05:34:23;;;;;;;7.40;2.42;;;;;;;;;;5139996;27;20103;-90
2023/05/20 05:37:08;;;;;;;4.88;1.80;;;;;;;;;;5139794;27;20079;-89
2023/05/20 05:39:53;;;;;;;6.05;1.80;;;;;;;;;;5119353;27;20038;-87
2023/05/20 05:42:37;;;;;;;11.10;2.33;;;;;;;;;;5119915;27;20038;-89
2023/05/20 05:45:22;;;;;;;5.93;1.92;;;;;;;;;;5131773;27;20046;-89
2023/05/20 05:48:06;;;;;;;7.25;1.83;;;;;;;;;;5139777;27;20038;-90
2023/05/20 05:50:51;;;;;;;4.10;1.80;;;;;;;;;;5141870;27;20053;-88
2023/05/20 05:53:35;;;;;;;3.72;1.52;;;;;;;;;;5137679;27;20048;-87
2023/05/20 05:56:20;;;;;;;5.25;2.13;;;;;;;;;;5152770;27;20395;-89
2023/05/20 05:59:05;;;;;;;2.90;1.58;;;;;;;;;;5145643;27;20103;-89
2023/05/20 06:01:49;;;;;;;4.68;2.10;;;;;;;;;;5134760;27;20083;-88
2023/05/20 06:04:34;;;;;;;6.35;2.05;;;;;;;;;;5131584;27;20070;-90
2023/05/20 06:07:18;;;;;;;3.15;1.63;;;;;;;;;;5155393;27;20118;-92
2023/05/20 06:10:03;;;;;;;5.55;1.60;;;;;;;;;;5118728;27;20059;-89
2023/05/20 06:12:48;;;;;;;2.90;1.38;;;;;;;;;;5133541;27;20037;-92
2023/05/20 06:15:33;;;;;;;4.82;1.35;;;;;;;;;;5132148;27;20045;-92
2023/05/20 06:18:17;;;;;;;3.10;1.48;;;;;;;;;;5131080;27;20547;-91
2023/05/20 06:21:02;;;;;;;3.40;1.67;;;;;;;;;;5140199;27;20079;-92
2023/05/20 06:23:46;;;;;;;5.68;1.38;;;;;;;;;;5139559;27;20052;-93
2023/05/20 06:26:31;;;;;;;4.75;1.50;;;;;;;;;;5155099;27;20042;-92
2023/05/20 06:29:16;;;;;;;3.45;1.52;;;;;;;;;;5127492;27;20041;-91
2023/05/20 06:32:03;;;;;;;3.00;1.50;;;;;;;;;;5155365;27;20033;-92
2023/05/20 06:34:48;;;;;;;4.97;1.40;;;;;;;;;;5119404;27;20054;-93
2023/05/20 06:37:33;;;;;;;3.47;1.42;;;;;;;;;;5155783;27;20946;-93
2023/05/20 06:40:18;;;;;;;4.55;1.73;;;;;;;;;;5124574;27;20399;-92
2023/05/20 06:43:02;;;;;;;6.18;1.60;;;;;;;;;;5155237;27;20095;-91
2023/05/20 06:45:49;;;;;;;3.58;1.45;;;;;;;;;;5125371;27;20034;-91
2023/05/20 06:48:34;;;;;;;4.80;2.17;;;;;;;;;;5155414;27;20139;-94
2023/05/20 06:51:19;;;;;;;3.72;1.40;;;;;;;;;;5139287;27;20145;-91
2023/05/20 06:54:03;;;;;;;3.22;1.60;;;;;;;;;;5155232;27;20069;-93
2023/05/20 06:56:48;;;;;;;4.90;1.30;;;;;;;;;;5132062;27;20141;-94
2023/05/20 06:59:32;;;;;;;5.47;1.65;;;;;;;;;;5118522;27;20137;-93
2023/05/20 07:02:17;;;;;;;7.00;1.95;;;;;;;;;;5115506;27;20543;-93
2023/05/20 07:05:01;;;;;;;6.22;1.55;;;;;;;;;;5122906;27;20099;-88
2023/05/20 07:07:46;;;;;;;2.65;1.30;;;;;;;;;;5132562;27;20038;-92
2023/05/20 07:10:30;;;;;;;3.83;1.40;;;;;;;;;;5149654;27;20259;-88
2023/05/20 07:13:15;;;;;;;4.80;1.52;;;;;;;;;;5137618;27;20038;-89
2023/05/20 07:15:59;;;;;;;4.15;1.70;;;;;;;;;;5153221;27;20038;-89
2023/05/20 07:18:44;;;;;;;3.75;1.35;;;;;;;;;;5145182;27;20167;-92
2023/05/20 07:21:29;;;;;;;4.28;1.40;;;;;;;;;;5137766;27;20102;-89
2023/05/20 07:24:13;;;;;;;4.40;1.80;;;;;;;;;;5137823;27;20115;-89
2023/05/20 07:26:58;;;;;;;3.65;1.67;;;;;;;;;;5138808;27;20111;-89
2023/05/20 07:29:45;;;;;;;4.30;1.70;;;;;;;;;;5146152;27;20034;-87
2023/05/20 07:32:30;;;;;;;3.13;1.50;;;;;;;;;;5142437;27;20602;-86
2023/05/20 07:35:15;;;;;;;3.08;1.70;;;;;;;;;;5119523;27;20046;-90
2023/05/20 07:37:59;;;;;;;4.35;1.60;;;;;;;;;;5121209;27;20034;-92
2023/05/20 07:40:49;;;;;;;5.18;1.67;;;;;;;;;;5131611;27;20078;-91
2023/05/20 07:43:37;;;;;;;4.47;1.88;;;;;;;;;;5125442;27;20151;-94
2023/05/20 07:46:32;;;;;;;6.10;1.85;;;;;;;;;;5123078;27;20041;-90
2023/05/20 07:49:30;;;;;;;3.83;1.80;;;;;;;;;;5135831;27;20062;-94
2023/05/20 07:52:20;;;;;;;3.00;1.55;;;;;;;;;;5139630;27;20176;-92
2023/05/20 07:55:13;;;;;;;5.45;1.67;;;;;;;;;;5105076;28;20075;-89
2023/05/20 07:57:58;;;;;;;4.15;1.63;;;;;;;;;;5120506;27;20026;-86
2023/05/20 08:00:50;;;;;;;4.65;1.90;;;;;;;;;;5121975;27;20080;-90
2023/05/20 08:03:37;;;;;;;3.53;1.50;;;;;;;;;;5115997;27;20051;-89
2023/05/20 08:06:25;;;;;;;4.97;1.83;;;;;;;;;;5111733;28;20034;-88
2023/05/20 08:09:10;;;;;;;4.05;1.63;;;;;;;;;;5118870;27;20046;-88
2023/05/20 08:11:54;;;;;;;11.88;2.83;;;;;;;;;;5132396;27;20091;-87
2023/05/20 08:14:39;;;;;;;3.65;2.00;;;;;;;;;;5117376;28;20622;-89
2023/05/20 08:17:24;;;;;;;5.20;1.77;;;;;;;;;;5117108;28;20081;-88
2023/05/20 08:20:09;;;;;;;9.77;2.13;;;;;;;;;;5121119;28;20053;-89
2023/05/20 08:22:56;;;;;;;4.40;1.95;;;;;;;;;;5128701;28;20110;-89
2023/05/20 08:25:41;;;;;;;3.85;1.80;;;;;;;;;;5119126;28;20110;-88
2023/05/20 08:28:25;;;;;;;5.45;2.05;;;;;;;;;;5123733;28;20081;-88
2023/05/20 08:31:18;;;;;;;4.50;1.90;;;;;;;;;;5128946;28;20053;-89
2023/05/20 08:34:02;;;;;;;4.28;1.85;;;;;;;;;;5113175;28;20494;-89
2023/05/20 08:36:47;;;;;;;5.90;2.60;;;;;;;;;;5111921;28;20490;-90
2023/05/20 08:39:32;;;;;;;4.07;1.98;;;;;;;;;;5129449;28;20528;-91
2023/05/20 08:42:28;;;;;;;4.93;2.05;;;;;;;;;;5125357;28;20081;-87
2023/05/20 08:45:15;;;;;;;6.63;1.80;;;;;;;;;;5126441;28;20054;-87
2023/05/20 08:48:06;;;;;;;5.15;1.80;;;;;;;;;;5131636;28;20110;-85
2023/05/20 08:51:04;;;;;;;3.75;1.90;;;;;;;;;;5132400;28;20395;-88
2023/05/20 08:53:58;;;;;;;3.60;1.83;;;;;;;;;;5120933;28;20399;-92
2023/05/20 09:00:19;;;;;;;5.85;2.42;;;;;;;;;;5069262;28;20047;-92
2023/05/20 09:03:29;;;;;;;4.80;1.90;;;;;;;;;;5112374;27;20070;-92
2023/05/20 09:06:25;;;;;;;4.40;2.25;;;;;;;;;;5128520;27;20053;-91
2023/05/20 09:09:42;;;;;;;3.70;1.90;;;;;;;;;;5122745;27;20045;-91
2023/05/20 09:12:33;;;;;;;3.38;1.67;;;;;;;;;;5120724;27;20043;-96
2023/05/20 09:15:43;;;;;;;5.32;1.90;;;;;;;;;;5126742;27;20042;-92
2023/05/20 09:18:31;;;;;;;5.30;2.20;;;;;;;;;;5135491;27;20080;-92
2023/05/20 09:21:28;;;;;;;3.85;2.03;;;;;;;;;;5127459;27;20548;-93
2023/05/20 09:24:23;;;;;;;7.25;2.05;;;;;;;;;;5120339;27;20053;-91
2023/05/20 09:27:09;;;;;;;4.68;1.75;;;;;;;;;;5135791;27;20054;-91
2023/05/20 09:29:57;;;;;;;3.45;1.70;;;;;;;;;;5135171;27;20046;-92
2023/05/20 09:33:02;;;;;;;;;;;;;;;;;;;;;
2023/05/20 09:35:50;;;;;;;5.63;1.70;;;;;;;;;;5135871;27;20141;-90
2023/05/20 09:38:38;;;;;;;4.35;1.73;;;;;;;;;;5132543;27;20054;-91
2023/05/20 09:41:26;;;;;;;3.72;1.67;;;;;;;;;;5128455;27;20045;-91
2023/05/20 09:44:27;;;;;;;8.73;2.20;;;;;;;;;;5127851;27;20065;-92
2023/05/20 09:50:41;;;;;;;3.75;1.90;;;;;;;;;;5114894;28;20077;-91
2023/05/20 09:57:09;;;;;;;3.85;1.90;;;;;;;;;;5063077;28;20063;-93
2023/05/20 10:00:20;;;;;;;5.72;1.77;;;;;;;;;;5058394;28;20529;-92
2023/05/20 10:07:07;;;;;;;;;;;;;;;;;;;;;
2023/05/20 10:10:19;;;;;;;5.40;2.50;;;;;;;;;;5020688;28;20055;-91
2023/05/20 10:21:08;;;;;;;3.90;1.63;;;;;;;;;;4915834;29;20042;-91
2023/05/20 10:24:12;;;;;;;4.82;2.22;;;;;;;;;;4939558;28;20094;-91
2023/05/20 10:27:04;;;;;;;5.07;1.77;;;;;;;;;;5041034;28;20118;-90
2023/05/20 10:30:10;;;;;;;2.83;1.60;;;;;;;;;;5092752;28;20039;-90
2023/05/20 10:33:03;;;;;;;4.43;2.10;;;;;;;;;;5104857;28;20374;-92
2023/05/20 10:35:53;;;;;;;3.88;1.90;;;;;;;;;;5112582;28;20042;-91
2023/05/20 10:38:59;;;;;;;;;;;;;;;;;;;;;
2023/05/20 10:41:49;;;;;;;5.50;2.25;;;;;;;;;;5107360;28;20533;-91
2023/05/20 10:44:49;;;;;;;3.13;1.70;;;;;;;;;;5093792;28;20054;-90
2023/05/20 10:47:37;;;;;;;3.35;1.75;;;;;;;;;;5112081;27;20458;-89
2023/05/20 10:50:59;;;;;;;4.43;1.70;;;;;;;;;;5106792;28;20130;-90
2023/05/20 10:53:52;;;;;;;6.32;2.40;;;;;;;;;;5093120;28;20098;-92
2023/05/20 10:56:37;;;;;;;5.55;1.95;;;;;;;;;;5123733;27;20049;-89
2023/05/20 10:59:46;;;;;;;3.60;1.90;;;;;;;;;;5127919;27;20037;-91
2023/05/20 11:02:34;;;;;;;7.00;2.92;;;;;;;;;;5134348;27;20072;-88
2023/05/20 11:05:19;;;;;;;6.55;2.00;;;;;;;;;;5133323;27;20146;-87
2023/05/20 11:08:09;;;;;;;6.05;1.70;;;;;;;;;;5133083;27;20039;-89
2023/05/20 11:11:06;;;;;;;4.57;1.75;;;;;;;;;;5132473;27;20115;-92
2023/05/20 11:17:37;;;;;;;;;;;;;;;;;;;;;
2023/05/20 11:20:54;;;;;;;4.70;1.55;;;;;;;;;;5128413;27;20039;-91
2023/05/20 11:27:04;;;;;;;3.83;1.55;;;;;;;;;;5115836;27;20104;-89
2023/05/20 11:29:50;;;;;;;4.75;1.98;;;;;;;;;;5131414;27;20417;-89
2023/05/20 11:32:44;;;;;;;3.58;1.80;;;;;;;;;;5131614;27;20066;-89
2023/05/20 11:35:41;;;;;;;3.88;2.13;;;;;;;;;;5120907;27;20038;-92
2023/05/20 11:38:36;;;;;;;5.85;1.92;;;;;;;;;;5129347;27;20400;-91
2023/05/20 11:41:30;;;;;;;4.78;2.20;;;;;;;;;;5119150;27;20033;-91
2023/05/20 11:44:21;;;;;;;;;;;20.60;67.00;;;;;;5129786;27;20038;-89
2023/05/20 11:47:12;;;;;;;5.22;2.30;;;;;;;;;;5131797;27;19921;-91
2023/05/20 11:50:27;;;;;;;;;;;;;;;;;;;;;
2023/05/20 11:53:47;;;;;;;4.43;1.35;;;;;;;;;;5133748;27;20050;-91
2023/05/20 11:57:04;;;;;;;2.80;1.67;;;;;;;;;;5131417;27;20084;-92
2023/05/20 12:14:58;;;;;;;3.65;1.90;;;;;;;;;;5010248;28;20161;-92
2023/05/20 12:21:13;;;;;;;3.88;1.63;;;;;;;;;;5024950;28;20043;-88
2023/05/20 12:24:00;;;;;;;2.75;1.55;;;;;;;;;;5078228;28;20043;-88
2023/05/20 12:26:47;;;;;;;3.90;1.80;;;;;;;;;;5124990;27;20536;-89
2023/05/20 12:29:35;;;;;;;2.80;1.60;;;;;;;;;;5132103;28;20034;-89
2023/05/20 12:32:50;;;;;;;;;;;;;;;;;;;;;
2023/05/20 12:35:42;;;;;;;5.22;1.65;;;;;;;;;;5128313;28;20433;-91
2023/05/20 12:38:37;;;;;;;;;;;;;;;;;;;;;
2023/05/20 12:44:47;;;;;;;4.55;2.00;;;;;;;;;;5116853;27;20087;-91
2023/05/20 12:47:33;;;;;;;5.45;1.80;;;;;;;;;;5105923;27;20197;-91
2023/05/20 12:50:45;;;;;;;6.15;2.15;;;;;;;;;;5135322;27;20038;-89
2023/05/20 12:53:38;;;;;;;4.93;1.52;;;;;;;;;;5126771;27;20035;-90
2023/05/20 12:56:25;;;;;;;5.93;1.57;;;;;;;;;;5114372;27;20057;-87
2023/05/20 13:02:36;;;;;;;3.97;1.85;;;;;;;;;;5056720;28;20068;-88
2023/05/20 13:05:20;;;;;;;13.13;1.98;;;;;;;;;;5114327;28;20092;-89
2023/05/20 13:08:13;;;;;;;17.08;3.30;;;;;;;;;;5131407;27;20041;-89
2023/05/20 13:11:00;;;;;;;5.55;1.63;;;;;;;;;;5125981;27;20034;-89
2023/05/20 13:14:03;;;;;;;4.50;2.00;;;;;;;;;;5120915;27;20042;-89
2023/05/20 13:16:54;;;;;;;3.75;1.83;;;;;;;;;;5123330;27;20494;-89
2023/05/20 13:19:39;;;;;;;14.65;3.33;;;;;;;;;;5127684;27;20087;-88
2023/05/20 13:22:48;;;;;;;4.60;1.85;;;;;;;;;;5122727;27;20053;-90
2023/05/20 13:25:34;;;;;;;4.57;1.60;;;;;;;;;;5134495;27;20122;-87
2023/05/20 13:28:26;;;;;;;5.43;1.90;;;;;;;;;;5132933;27;20485;-90
2023/05/20 13:31:13;;;;;;;12.50;3.40;;;;;;;;;;5115627;27;20552;-89
2023/05/20 13:34:37;;;;;;;;;;;;;;;;;;;;;
2023/05/20 13:37:32;;;;;;;;;;;20.50;65.40;;;;;;5126163;27;20042;-92
2023/05/20 13:40:16;;;;;;;;;;;20.30;65.30;;;;;;5134251;27;20021;-90
2023/05/20 13:43:06;;;;;;;5.13;1.65;;;;;;;;;;5121276;27;20274;-92
2023/05/20 13:46:11;;;;;;;13.48;2.40;;;;;;;;;;5121497;27;20038;-90
2023/05/20 13:48:59;;;;;;;4.57;2.13;;;;;;;;;;5133364;27;20033;-89
2023/05/20 13:51:47;;;;;;;4.80;1.70;;;;;;;;;;5126222;27;20046;-90
2023/05/20 13:54:43;;;;;;;3.35;1.73;;;;;;;;;;5130423;27;20041;-89
2023/05/20 14:00:35;;;;;;;3.83;1.40;;;;;;;;;;5123034;27;20038;-91
2023/05/20 14:03:22;;;;;;;3.25;1.90;;;;;;;;;;5105201;27;20118;-91
2023/05/20 14:06:13;;;;;;;3.15;1.70;;;;;;;;;;5133237;27;20035;-92
2023/05/20 14:09:13;;;;;;;5.45;1.80;;;;;;;;;;5123035;27;20035;-91
2023/05/20 14:12:09;;;;;;;6.50;2.00;;;;;;;;;;5128316;27;20120;-88
2023/05/20 14:15:04;;;;;;;3.30;1.90;;;;;;;;;;5113384;27;20124;-90
2023/05/20 14:17:51;;;;;;;5.25;2.03;;;;;;;;;;5114276;28;20093;-90
2023/05/20 14:20:44;;;;;;;3.67;1.67;;;;;;;;;;5113970;28;20046;-90
2023/05/20 14:23:36;;;;;;;5.35;2.17;;;;;;;;;;5130041;27;20049;-89
2023/05/20 14:26:21;;;;;;;3.95;2.15;;;;;;;;;;5133055;27;20099;-89
2023/05/20 14:29:07;;;;;;;4.55;1.83;;;;;;;;;;5120644;27;20042;-90
2023/05/20 14:31:52;;;;;;;6.03;2.85;;;;;;;;;;5133066;27;20070;-88
2023/05/20 14:34:39;;;;;;;4.53;1.70;;;;;;;;;;5133191;27;20493;-89
2023/05/20 14:37:26;;;;;;;3.38;1.50;;;;;;;;;;5132474;27;20645;-90
2023/05/20 14:40:28;;;;;;;3.88;1.80;;;;;;;;;;5117988;27;20101;-89
2023/05/20 14:43:12;;;;;;;5.75;1.90;;;;;;;;;;5132657;27;20034;-89
2023/05/20 14:46:04;;;;;;;5.25;1.92;;;;;;;;;;5133960;27;20053;-88
2023/05/20 14:48:57;;;;;;;5.55;2.22;;;;;;;;;;5133290;27;20092;-89
2023/05/20 14:51:41;;;;;;;4.00;1.80;;;;;;;;;;5110992;28;20084;-89
2023/05/20 14:54:28;;;;;;;7.35;2.42;;;;;;;;;;5113518;27;20105;-88
2023/05/20 14:57:20;;;;;;;6.97;2.50;;;;;;;;;;5131881;27;20089;-89
2023/05/20 15:00:31;;;;;;;3.83;1.92;;;;;;;;;;5126980;27;20123;-94
2023/05/20 15:03:16;;;;;;;6.50;1.85;;;;;;;;;;5112465;28;20031;-89
2023/05/20 15:06:00;;;;;;;4.35;1.67;;;;;;;;;;5128914;27;20500;-89
2023/05/20 15:08:48;;;;;;;5.05;1.73;;;;;;;;;;5112012;28;20395;-90
2023/05/20 15:11:32;;;;;;;7.43;2.30;;;;;;;;;;5114280;27;20084;-90
2023/05/20 15:14:23;;;;;;;4.97;1.83;;;;;;;;;;5131407;27;20038;-88
2023/05/20 15:17:10;;;;;;;6.85;2.25;;;;;;;;;;5132422;27;20034;-88
2023/05/20 15:19:57;;;;;;;5.65;1.85;;;;;;;;;;5132132;27;20049;-90
2023/05/20 15:22:46;;;;;;;4.55;1.80;;;;;;;;;;5132311;27;20042;-89
2023/05/20 15:25:31;;;;;;;5.40;1.63;;;;;;;;;;5132617;27;20210;-90
2023/05/20 15:28:18;;;;;;;5.78;1.55;;;;;;;;;;5128307;27;20100;-91
2023/05/20 15:31:05;;;;;;;4.68;1.88;;;;;;;;;;5129054;27;20111;-93
2023/05/20 15:33:52;;;;;;;4.75;1.63;;;;;;;;;;5130045;27;20034;-92
2023/05/20 15:36:39;;;;;;;8.85;1.65;;;;;;;;;;5118606;27;20395;-90
2023/05/20 15:39:25;;;;;;;5.60;2.00;;;;;;;;;;5111265;28;20042;-90
2023/05/20 15:42:17;;;;;;;3.92;2.20;;;;;;;;;;5121298;27;20112;-90
2023/05/20 15:45:01;;;;;;;5.50;1.92;;;;;;;;;;5131664;27;20050;-89
2023/05/20 15:47:49;;;;;;;5.78;1.80;;;;;;;;;;5117186;27;20103;-91
2023/05/20 15:50:37;;;;;;;4.88;1.60;;;;;;;;;;5133420;27;20066;-90
2023/05/20 15:53:24;;;;;;;4.60;2.00;;;;;;;;;;5122868;27;20039;-89
2023/05/20 15:56:12;;;;;;;2.80;1.58;;;;;;;;;;5130173;27;20061;-91
2023/05/20 15:59:17;;;;;;;4.18;1.77;;;;;;;;;;5123343;27;20588;-91
2023/05/20 16:02:05;;;;;;;3.70;1.52;;;;;;;;;;5121578;27;20439;-91
2023/05/20 16:05:34;;;;;;;;;;;;;;;;;;;;;
2023/05/20 16:08:29;;;;;;;;;;;;;;;;;;;;;
2023/05/20 16:11:38;;;;;;;3.80;1.50;;;;;;;;;;5157151;27;20037;-92
2023/05/20 16:18:28;;;;;;;6.05;1.88;;;;;;;;;;5144325;27;20050;-90
2023/05/20 16:25:01;;;;;;;3.88;1.70;;;;;;;;;;5102056;28;20407;-92
2023/05/20 16:27:57;;;;;;;5.80;2.13;;;;;;;;;;5090875;28;20142;-93
2023/05/20 16:31:07;;;;;;;7.40;2.85;;;;;;;;;;5082957;28;20159;-91
2023/05/20 16:34:17;;;;;;;5.25;2.08;;;;;;;;;;5086625;28;20058;-92
2023/05/20 16:37:12;;;;;;;;;;;;;;;;;;;;;
2023/05/20 16:40:00;;;;;;;4.95;1.60;;;;;;;;;;5100037;28;20039;-89
2023/05/20 16:42:45;;;;;;;5.00;1.60;;;;;;;;;;5084414;28;20039;-90
2023/05/20 16:45:43;;;;;;;12.05;3.85;;;;;;;;;;5091559;28;20482;-91
2023/05/20 16:48:46;;;;;;;6.57;2.80;;;;;;;;;;5073486;28;20046;-91
2023/05/20 16:55:26;;;;;;;6.78;2.42;;;;;;;;;;5076000;28;20435;-91
2023/05/20 16:58:13;;;;;;;7.55;2.65;;;;;;;;;;5113638;27;20483;-90
2023/05/20 17:01:00;;;;;;;3.05;1.83;;;;;;;;;;5127568;27;20110;-89
2023/05/20 17:03:47;;;;;;;6.78;1.92;;;;;;;;;;5148810;27;20041;-89
2023/05/20 17:06:48;;;;;;;5.22;2.20;;;;;;;;;;5119891;27;20061;-89
2023/05/20 17:09:35;;;;;;;4.10;1.80;;;;;;;;;;5106060;27;20112;-89
2023/05/20 17:12:20;;;;;;;3.42;1.58;;;;;;;;;;5133941;27;20057;-90
2023/05/20 17:15:05;;;;;;;4.07;2.03;;;;;;;;;;5129448;27;20031;-90
2023/05/20 17:17:50;;;;;;;3.95;1.75;;;;;;;;;;5112038;27;20082;-89
2023/05/20 17:20:35;;;;;;;6.88;1.90;;;;;;;;;;5133137;27;20107;-89
2023/05/20 17:23:25;;;;;;;6.55;2.40;;;;;;;;;;5134838;27;20070;-89
2023/05/20 17:26:26;;;;;;;4.40;2.45;;;;;;;;;;5137510;27;20099;-89
2023/05/20 17:29:26;;;;;;;;;;;;;;;;;;;;;
2023/05/20 17:32:20;;;;;;;3.22;1.73;;;;;;;;;;5138444;27;20406;-90
2023/05/20 17:35:08;;;;;;;3.25;1.73;;;;;;;;;;5128771;27;20118;-90
2023/05/20 17:37:53;;;;;;;4.05;1.58;;;;;;;;;;5128823;27;20407;-92
2023/05/20 17:40:38;;;;;;;5.18;2.00;;;;;;;;;;5130615;27;20083;-90
2023/05/20 17:43:32;;;;;;;2.83;1.60;;;;;;;;;;5149237;27;20033;-91
2023/05/20 17:46:17;;;;;;;5.43;2.33;;;;;;;;;;5136112;27;20098;-89
2023/05/20 17:49:03;;;;;;;4.95;2.05;;;;;;;;;;5126647;27;20054;-88
2023/05/20 17:51:48;;;;;;;4.53;1.70;;;;;;;;;;5134661;27;20098;-88
2023/05/20 17:54:33;;;;;;;4.15;1.80;;;;;;;;;;5121766;27;20046;-88
2023/05/20 17:57:21;;;;;;;3.78;1.75;;;;;;;;;;5155816;27;20664;-89
2023/05/20 18:00:07;;;;;;;4.43;2.38;;;;;;;;;;5155728;27;20530;-88
2023/05/20 18:02:56;;;;;;;4.18;1.70;;;;;;;;;;5139093;27;20038;-87
2023/05/20 18:05:41;;;;;;;3.90;1.92;;;;;;;;;;5128920;27;20091;-90
2023/05/20 18:08:25;;;;;;;5.63;1.40;;;;;;;;;;5133721;27;20054;-90
2023/05/20 18:11:13;;;;;;;4.57;1.98;;;;;;;;;;5133882;27;20039;-89